Time;durP1;ratioP1;P1;durP2;ratioP2;P2;SDS_P1;SDS_P2;PMS_P1;PMS_P2;Temp;Humidity;BMP_temperature;BMP_pressure;BME280_temperature;BME280_humidity;BME280_pressure;Samples;Min_cycle;Max_cycle;Signal;HPM_P1;HPM_P2
2022/04/26 03:36:10;;;;;;;7.15;2.17;;;;;;;;;;5122308;27;20046;-74
2022/04/26 03:38:36;;;;;;;5.57;2.10;;;;;;;;;;5124364;27;20039;-74
2022/04/26 03:41:02;;;;;;;6.63;2.38;;;;;;;;;;5122101;27;20037;-73
2022/04/26 03:43:29;;;;;;;5.57;2.15;;;;;;;;;;5124303;27;20122;-72
2022/04/26 03:45:55;;;;;;;6.32;2.20;;;;;;;;;;5105333;27;20026;-73
2022/04/26 03:48:21;;;;;;;6.05;2.05;;;;;;;;;;5107031;27;20070;-73
2022/04/26 03:50:47;;;;;;;6.20;2.00;;;;;;;;;;5121580;27;20134;-75
2022/04/26 03:53:13;;;;;;;6.13;2.00;;;;;;;;;;5123968;27;20071;-74
2022/04/26 03:55:39;;;;;;;7.00;2.00;;;;;;;;;;5122119;27;20049;-74
2022/04/26 03:58:05;;;;;;;5.03;2.00;;;;;;;;;;5123598;27;20043;-75
2022/04/26 04:00:31;;;;;;;5.38;2.10;;;;;;;;;;5122828;27;20054;-74
2022/04/26 04:02:57;;;;;;;6.25;2.25;;;;;;;;;;5107117;27;20045;-75
2022/04/26 04:05:23;;;;;;;4.60;1.85;;;;;;;;;;5120687;27;20076;-74
2022/04/26 04:07:49;;;;;;;5.57;1.98;;;;;;;;;;5123273;27;20227;-74
2022/04/26 04:10:15;;;;;;;6.05;1.92;;;;;;;;;;5121788;27;20218;-73
2022/04/26 04:12:41;;;;;;;6.05;2.05;;;;;;;;;;5123826;27;20206;-74
2022/04/26 04:15:07;;;;;;;4.35;1.83;;;;;;;;;;5121923;27;20046;-75
2022/04/26 04:17:33;;;;;;;5.53;2.08;;;;;;;;;;5123646;27;20126;-75
2022/04/26 04:19:59;;;;;;;5.40;1.98;;;;;;;;;;5117782;27;20558;-75
2022/04/26 04:22:25;;;;;;;5.78;2.10;;;;;;;;;;5088008;28;20035;-76
2022/04/26 04:24:51;;;;;;;6.95;1.77;;;;;;;;;;5099621;27;20343;-74
2022/04/26 04:27:17;;;;;;;5.60;2.00;;;;;;;;;;5123622;27;20038;-74
2022/04/26 04:29:44;;;;;;;4.90;1.88;;;;;;;;;;5102099;27;20263;-75
2022/04/26 04:32:10;;;;;;;5.55;1.98;;;;;;;;;;5141915;27;20246;-74
2022/04/26 04:34:36;;;;;;;5.63;2.20;;;;;;;;;;5110547;27;20039;-75
2022/04/26 04:37:03;;;;;;;4.35;1.60;;;;;;;;;;5081563;28;20505;-74
2022/04/26 04:39:29;;;;;;;5.40;1.80;;;;;;;;;;5092782;27;20034;-74
2022/04/26 04:41:55;;;;;;;4.75;1.88;;;;;;;;;;5105135;27;20180;-74
2022/04/26 04:44:21;;;;;;;8.07;2.28;;;;;;;;;;5113798;27;20447;-74
2022/04/26 04:46:49;;;;;;;5.47;2.00;;;;;;;;;;5083767;27;20054;-75
2022/04/26 04:49:15;;;;;;;5.65;1.83;;;;;;;;;;5085735;27;20460;-72
2022/04/26 04:51:41;;;;;;;5.72;1.80;;;;;;;;;;5080707;28;20099;-75
2022/04/26 04:54:07;;;;;;;6.35;1.80;;;;;;;;;;5087265;27;20047;-75
2022/04/26 04:56:33;;;;;;;5.38;1.90;;;;;;;;;;5121590;27;20047;-75
2022/04/26 04:58:59;;;;;;;7.05;1.95;;;;;;;;;;5119992;27;20043;-74
2022/04/26 05:01:25;;;;;;;5.18;1.88;;;;;;;;;;5122047;27;20129;-75
2022/04/26 05:03:52;;;;;;;4.82;1.80;;;;;;;;;;5120382;27;20320;-75
2022/04/26 05:06:18;;;;;;;5.60;1.83;;;;;;;;;;5120721;27;20319;-74
2022/04/26 05:08:44;;;;;;;7.40;2.08;;;;;;;;;;5122233;27;20042;-74
2022/04/26 05:11:10;;;;;;;5.75;1.77;;;;;;;;;;5121483;27;20310;-73
2022/04/26 05:13:37;;;;;;;4.95;1.90;;;;;;;;;;5121859;27;20242;-73
2022/04/26 05:16:03;;;;;;;4.57;1.63;;;;;;;;;;5119793;27;20074;-74
2022/04/26 05:18:29;;;;;;;7.38;1.92;;;;;;;;;;5122396;27;20365;-72
2022/04/26 05:20:55;;;;;;;4.50;1.75;;;;;;;;;;5119627;27;20102;-72
2022/04/26 05:26:05;;;;;;;;;;;;;;;;;;5120538;27;20118;-73
2022/04/26 05:28:32;;;;;;;4.32;1.70;;;;;;;;;;5122049;27;20005;-73
2022/04/26 05:30:58;;;;;;;4.93;1.85;;;;;;;;;;5094557;28;20052;-74
2022/04/26 05:33:26;;;;;;;6.90;2.00;;;;;;;;;;5081368;28;20175;-74
2022/04/26 05:35:52;;;;;;;5.07;1.85;;;;;;;;;;5115842;27;20126;-74
2022/04/26 05:38:18;;;;;;;6.70;2.28;;;;;;;;;;5122245;27;20146;-75
2022/04/26 05:40:44;;;;;;;6.15;2.20;;;;;;;;;;5105300;28;20130;-75
2022/04/26 05:43:10;;;;;;;5.10;1.70;;;;;;;;;;5100873;28;20450;-75
2022/04/26 05:45:36;;;;;;;5.15;1.52;;;;;;;;;;5115392;27;20049;-74
2022/04/26 05:48:04;;;;;;;4.63;1.40;;;;;;;;;;5105026;27;20046;-77
2022/04/26 05:50:30;;;;;;;7.55;1.92;;;;;;;;;;5119461;27;20459;-74
2022/04/26 05:52:56;;;;;;;5.30;1.85;;;;;;;;;;5121830;27;20039;-75
2022/04/26 05:55:22;;;;;;;6.70;2.08;;;;;;;;;;5119138;27;20049;-75
2022/04/26 05:57:48;;;;;;;5.63;1.77;;;;;;;;;;5121633;27;20043;-75
2022/04/26 06:00:14;;;;;;;5.00;1.90;;;;;;;;;;5103049;27;20141;-75
2022/04/26 06:02:41;;;;;;;7.45;1.88;;;;;;;;;;5104744;27;20061;-75
2022/04/26 06:05:07;;;;;;;6.10;1.80;;;;;;;;;;5119619;27;20533;-75
2022/04/26 06:07:33;;;;;;;4.53;1.80;;;;;;;;;;5121728;27;20083;-75
2022/04/26 06:09:59;;;;;;;6.75;1.95;;;;;;;;;;5119788;27;20054;-73
2022/04/26 06:12:28;;;;;;;4.75;1.95;;;;;;;;;;5120991;27;20221;-75
2022/04/26 06:14:57;;;;;;;4.60;1.50;;;;;;;;;;5119839;27;20074;-75
2022/04/26 06:17:23;;;;;;;5.22;2.00;;;;;;;;;;5104600;27;20546;-74
2022/04/26 06:19:49;;;;;;;4.88;1.80;;;;;;;;;;5101985;27;20114;-75
2022/04/26 06:22:16;;;;;;;5.88;1.70;;;;;;;;;;5121507;27;20471;-76
2022/04/26 06:24:42;;;;;;;5.93;1.75;;;;;;;;;;5137621;27;20109;-76
2022/04/26 06:27:08;;;;;;;7.22;1.92;;;;;;;;;;5105825;27;20194;-74
2022/04/26 06:29:34;;;;;;;4.50;1.70;;;;;;;;;;5141549;27;20122;-75
2022/04/26 06:32:01;;;;;;;5.28;1.75;;;;;;;;;;5125442;27;20054;-73
2022/04/26 06:34:27;;;;;;;7.63;2.15;;;;;;;;;;5122752;27;20050;-74
2022/04/26 06:36:53;;;;;;;5.10;1.70;;;;;;;;;;5122735;27;20098;-74
2022/04/26 06:39:19;;;;;;;4.43;1.60;;;;;;;;;;5075837;27;20651;-74
2022/04/26 06:41:45;;;;;;;4.53;1.60;;;;;;;;;;5102194;27;20248;-73
2022/04/26 06:44:11;;;;;;;4.53;1.83;;;;;;;;;;5086771;27;20387;-75
2022/04/26 06:46:37;;;;;;;5.57;1.65;;;;;;;;;;5104087;27;20163;-74
2022/04/26 06:49:04;;;;;;;3.95;1.50;;;;;;;;;;5103371;27;20138;-74
2022/04/26 06:51:38;;;;;;;4.18;1.77;;;;;;;;;;5121983;27;20172;-74
2022/04/26 06:54:04;;;;;;;6.35;1.90;;;;;;;;;;5103013;27;20440;-75
2022/04/26 06:56:30;;;;;;;5.07;1.85;;;;;;;;;;5103291;27;20062;-75
2022/04/26 06:58:56;;;;;;;5.00;1.98;;;;;;;;;;5109223;27;20209;-74
2022/04/26 07:01:22;;;;;;;4.35;1.27;;;;;;;;;;5122117;27;20317;-76
2022/04/26 07:03:48;;;;;;;5.50;1.90;;;;;;;;;;5104021;27;20054;-76
2022/04/26 07:06:14;;;;;;;5.07;1.45;;;;;;;;;;5103593;27;20186;-76
2022/04/26 07:08:40;;;;;;;4.68;1.75;;;;;;;;;;5083669;27;20039;-76
2022/04/26 07:11:06;;;;;;;5.35;1.80;;;;;;;;;;5084489;27;20123;-76
2022/04/26 07:13:32;;;;;;;4.88;1.75;;;;;;;;;;5103874;27;20153;-76
2022/04/26 07:15:58;;;;;;;4.55;1.40;;;;;;;;;;5106744;27;20043;-75
2022/04/26 07:18:26;;;;;;;4.50;1.73;;;;;;;;;;5103678;27;20031;-74
2022/04/26 07:20:52;;;;;;;5.85;1.77;;;;;;;;;;5103407;27;20031;-74
2022/04/26 07:23:19;;;;;;;6.25;1.90;;;;;;;;;;5104204;27;20117;-74
2022/04/26 07:25:45;;;;;;;5.53;1.75;;;;;;;;;;5119561;27;20035;-74
2022/04/26 07:28:11;;;;;;;5.00;1.55;;;;;;;;;;5113626;27;20813;-73
2022/04/26 07:30:39;;;;;;;5.95;1.70;;;;;;;;;;5091206;27;20047;-75
2022/04/26 07:35:51;;;;;;;5.13;1.77;;;;;;;;;;5108373;27;20287;-75
2022/04/26 07:38:17;;;;;;;7.32;1.98;;;;;;;;;;5102253;27;20417;-73
2022/04/26 07:40:43;;;;;;;7.07;2.15;;;;;;;;;;5105324;27;20061;-74
2022/04/26 07:43:09;;;;;;;9.13;2.35;;;;;;;;;;5102661;27;20119;-75
2022/04/26 07:45:39;;;;;;;5.97;1.70;;;;;;;;;;5117148;27;20075;-73
2022/04/26 07:48:06;;;;;;;4.75;1.85;;;;;;;;;;5123492;27;20611;-73
2022/04/26 07:50:33;;;;;;;6.43;1.90;;;;;;;;;;5122652;27;20179;-75
2022/04/26 07:53:00;;;;;;;5.30;1.67;;;;;;;;;;5119107;27;20298;-75
2022/04/26 07:55:27;;;;;;;5.25;1.70;;;;;;;;;;5114625;27;20059;-74
2022/04/26 07:57:53;;;;;;;4.70;1.52;;;;;;;;;;5116131;27;20160;-74
2022/04/26 08:00:19;;;;;;;3.95;1.40;;;;;;;;;;5103909;27;20089;-73
2022/04/26 08:02:45;;;;;;;6.50;2.00;;;;;;;;;;5081132;27;20134;-74
2022/04/26 08:05:14;;;;;;;5.95;2.25;;;;;;;;;;5073718;27;20085;-75
2022/04/26 08:07:41;;;;;;;5.15;1.70;;;;;;;;;;5082999;27;20664;-74
2022/04/26 08:10:11;;;;;;;5.70;1.77;;;;;;;;;;5085672;27;20386;-75
2022/04/26 08:12:40;;;;;;;4.07;1.60;;;;;;;;;;5081453;27;20119;-75
2022/04/26 08:15:07;;;;;;;4.30;1.50;;;;;;;;;;5086113;27;20067;-73
2022/04/26 08:17:33;;;;;;;4.72;1.75;;;;;;;;;;5081986;27;20273;-75
2022/04/26 08:19:59;;;;;;;4.47;1.70;;;;;;;;;;5085264;27;20035;-74
2022/04/26 08:22:25;;;;;;;5.63;1.60;;;;;;;;;;5081467;27;20123;-75
2022/04/26 08:27:36;;;;;;;4.75;1.80;;;;;;;;;;5080517;27;20047;-74
2022/04/26 08:30:03;;;;;;;6.78;1.98;;;;;;;;;;5069204;27;20120;-74
2022/04/26 08:32:43;;;;;;;5.65;1.90;;;;;;;;;;5081063;27;21500;-74
2022/04/26 08:35:10;;;;;;;4.72;1.80;;;;;;;;;;5085043;27;20043;-74
2022/04/26 08:37:37;;;;;;;6.07;1.77;;;;;;;;;;5081065;27;20048;-74
2022/04/26 08:40:05;;;;;;;4.72;1.55;;;;;;;;;;5068463;27;20073;-74
2022/04/26 08:42:38;;;;;;;4.55;1.42;;;;;;;;;;5080440;27;20703;-74
2022/04/26 08:45:05;;;;;;;5.43;1.90;;;;;;;;;;5083461;27;20074;-72
2022/04/26 08:53:02;;;;;;;5.57;1.58;;;;;;;;;;5070952;27;20488;-73
2022/04/26 08:55:28;;;;;;;6.93;1.73;;;;;;;;;;5103730;27;20039;-72
2022/04/26 08:57:54;;;;;;;5.75;1.98;;;;;;;;;;5080634;27;20412;-73
2022/04/26 09:00:20;;;;;;;4.78;1.48;;;;;;;;;;5101204;27;20096;-74
2022/04/26 09:03:00;;;;;;;4.85;1.50;;;;;;;;;;5083900;27;20107;-74
2022/04/26 09:05:26;;;;;;;4.55;1.63;;;;;;;;;;5084068;27;20123;-74
2022/04/26 09:07:52;;;;;;;7.13;1.80;;;;;;;;;;5080718;27;20048;-73
2022/04/26 09:10:19;;;;;;;8.30;1.70;;;;;;;;;;5082940;27;20043;-74
2022/04/26 09:13:01;;;;;;;5.85;1.92;;;;;;;;;;5079956;27;20126;-74
2022/04/26 09:15:37;;;;;;;4.40;1.52;;;;;;;;;;5080254;27;20063;-74
2022/04/26 09:18:22;;;;;;;4.68;1.60;;;;;;;;;;5080598;27;20051;-74
2022/04/26 09:20:49;;;;;;;5.18;1.73;;;;;;;;;;5067929;27;20115;-73
2022/04/26 09:23:18;;;;;;;4.03;1.55;;;;;;;;;;5072205;27;20050;-74
2022/04/26 09:25:44;;;;;;;4.47;1.70;;;;;;;;;;5071632;27;20104;-73
2022/04/26 09:28:19;;;;;;;4.57;1.60;;;;;;;;;;5091108;27;20572;-74
2022/04/26 09:30:45;;;;;;;4.97;1.70;;;;;;;;;;5071482;27;20047;-74
2022/04/26 09:33:11;;;;;;;4.47;1.55;;;;;;;;;;5056372;27;21752;-74
2022/04/26 09:35:37;;;;;;;4.32;1.50;;;;;;;;;;5074306;27;20043;-73
2022/04/26 09:38:04;;;;;;;5.88;1.75;;;;;;;;;;5082725;27;20054;-73
2022/04/26 09:40:35;;;;;;;5.50;1.50;;;;;;;;;;5084813;27;20050;-74
2022/04/26 09:43:01;;;;;;;5.05;1.83;;;;;;;;;;5079933;27;20137;-73
2022/04/26 09:45:27;;;;;;;4.80;1.70;;;;;;;;;;5101417;27;20500;-74
2022/04/26 09:47:57;;;;;;;4.90;1.98;;;;;;;;;;5080299;27;20124;-73
2022/04/26 09:50:23;;;;;;;4.50;1.70;;;;;;;;;;5082164;27;20250;-74
2022/04/26 09:52:49;;;;;;;4.38;1.50;;;;;;;;;;5080410;27;20451;-73
2022/04/26 09:55:15;;;;;;;3.55;1.50;;;;;;;;;;5081364;27;20149;-75
2022/04/26 09:57:43;;;;;;;4.72;1.70;;;;;;;;;;5079420;27;20075;-73
2022/04/26 10:00:10;;;;;;;4.70;2.03;;;;;;;;;;5083040;28;20035;-75
2022/04/26 10:02:40;;;;;;;4.57;1.75;;;;;;;;;;5102034;27;20272;-74
2022/04/26 10:05:06;;;;;;;3.88;1.50;;;;;;;;;;5099710;27;20480;-73
2022/04/26 10:07:36;;;;;;;4.90;1.70;;;;;;;;;;5085297;28;20551;-74
2022/04/26 10:10:04;;;;;;;4.00;1.50;;;;;;;;;;5087804;27;20491;-75
2022/04/26 10:12:31;;;;;;;5.13;1.70;;;;;;;;;;5125748;27;20042;-73
2022/04/26 10:14:58;;;;;;;5.00;1.58;;;;;;;;;;5105198;27;20039;-73
2022/04/26 10:17:24;;;;;;;4.22;1.63;;;;;;;;;;5104115;27;20400;-74
2022/04/26 10:19:51;;;;;;;8.02;2.50;;;;;;;;;;5110009;27;20031;-74
2022/04/26 10:22:18;;;;;;;6.72;3.13;;;;;;;;;;5144052;27;20038;-75
2022/04/26 10:25:03;;;;;;;9.65;3.70;;;;;;;;;;5123990;27;20047;-74
2022/04/26 10:27:29;;;;;;;8.27;3.80;;;;;;;;;;5107978;27;20051;-75
2022/04/26 10:29:55;;;;;;;7.10;3.03;;;;;;;;;;5123848;27;20155;-74
2022/04/26 10:32:31;;;;;;;6.72;3.60;;;;;;;;;;5125691;27;20210;-75
2022/04/26 10:35:17;;;;;;;7.45;3.72;;;;;;;;;;5141718;27;20308;-74
2022/04/26 10:37:44;;;;;;;10.30;3.90;;;;;;;;;;5125257;27;20424;-74
2022/04/26 10:40:10;;;;;;;7.78;3.30;;;;;;;;;;5106763;27;20035;-73
2022/04/26 10:42:36;;;;;;;8.20;4.07;;;;;;;;;;5126239;27;20436;-74
2022/04/26 10:45:12;;;;;;;8.38;3.97;;;;;;;;;;5123732;27;20363;-75
2022/04/26 10:47:40;;;;;;;6.93;3.30;;;;;;;;;;5108319;27;20226;-75
2022/04/26 10:50:06;;;;;;;6.82;3.00;;;;;;;;;;5123755;27;20046;-75
2022/04/26 10:52:35;;;;;;;6.78;3.28;;;;;;;;;;5125467;27;20042;-75
2022/04/26 10:55:03;;;;;;;6.97;3.45;;;;;;;;;;5095988;27;20134;-75
2022/04/26 10:57:33;;;;;;;6.72;3.35;;;;;;;;;;5087488;27;20043;-74
2022/04/26 11:00:09;;;;;;;7.10;3.38;;;;;;;;;;5108001;27;20070;-75
2022/04/26 11:02:40;;;;;;;7.82;3.30;;;;;;;;;;5104478;27;20255;-75
2022/04/26 11:05:16;;;;;;;6.80;3.38;;;;;;;;;;5114208;27;20050;-73
2022/04/26 11:07:49;;;;;;;9.02;3.83;;;;;;;;;;5143822;27;20034;-74
2022/04/26 11:10:16;;;;;;;6.97;3.30;;;;;;;;;;5123101;27;20038;-73
2022/04/26 11:12:43;;;;;;;7.50;3.25;;;;;;;;;;5123497;27;20174;-74
2022/04/26 11:15:11;;;;;;;7.10;3.13;;;;;;;;;;5123256;27;20512;-73
2022/04/26 11:17:37;;;;;;;9.55;3.75;;;;;;;;;;5124537;27;20053;-73
2022/04/26 11:20:12;;;;;;;6.85;3.03;;;;;;;;;;5122113;27;20050;-74
2022/04/26 11:22:48;;;;;;;6.97;3.55;;;;;;;;;;5124563;27;20126;-74
2022/04/26 11:28:21;;;;;;;6.72;3.47;;;;;;;;;;5081781;28;20101;-74
2022/04/26 11:30:47;;;;;;;7.38;3.03;;;;;;;;;;5114533;27;20042;-73
2022/04/26 11:33:22;;;;;;;6.18;2.92;;;;;;;;;;5124531;27;20054;-73
2022/04/26 11:36:08;;;;;;;6.05;2.90;;;;;;;;;;5122611;27;20046;-74
2022/04/26 11:38:34;;;;;;;6.25;3.00;;;;;;;;;;5124604;27;20047;-73
2022/04/26 11:41:01;;;;;;;8.02;3.25;;;;;;;;;;5140823;27;20042;-74
2022/04/26 11:43:28;;;;;;;7.00;3.03;;;;;;;;;;5124040;27;20091;-74
2022/04/26 11:45:55;;;;;;;6.35;3.20;;;;;;;;;;5105236;27;20123;-74
2022/04/26 11:48:21;;;;;;;6.65;3.40;;;;;;;;;;5103499;27;20317;-73
2022/04/26 11:50:48;;;;;;;6.82;3.10;;;;;;;;;;5119280;27;20042;-74
2022/04/26 11:53:16;;;;;;;6.13;2.90;;;;;;;;;;5124430;27;20049;-74
2022/04/26 11:55:43;;;;;;;7.82;3.20;;;;;;;;;;5121816;27;20043;-74
2022/04/26 11:58:13;;;;;;;6.18;3.10;;;;;;;;;;5106926;27;20046;-74
2022/04/26 12:00:50;;;;;;;5.50;2.63;;;;;;;;;;5141877;27;20117;-75
2022/04/26 12:03:17;;;;;;;6.50;2.85;;;;;;;;;;5142754;27;20054;-74
2022/04/26 12:05:43;;;;;;;6.10;2.60;;;;;;;;;;5121354;27;20034;-74
2022/04/26 12:08:12;;;;;;;6.65;3.03;;;;;;;;;;5124239;27;20047;-74
2022/04/26 12:10:39;;;;;;;6.68;3.05;;;;;;;;;;5122549;27;20155;-72
2022/04/26 12:13:05;;;;;;;6.78;2.88;;;;;;;;;;5142762;27;20478;-72
2022/04/26 12:15:33;;;;;;;7.25;2.92;;;;;;;;;;5104896;27;20170;-73
2022/04/26 12:18:09;;;;;;;6.20;2.83;;;;;;;;;;5109635;27;20081;-74
2022/04/26 12:20:58;;;;;;;5.80;2.70;;;;;;;;;;5116164;27;20487;-75
2022/04/26 12:23:24;;;;;;;6.15;2.40;;;;;;;;;;5116673;27;20085;-74
2022/04/26 12:25:54;;;;;;;5.53;2.33;;;;;;;;;;5136655;27;20062;-75
2022/04/26 12:28:20;;;;;;;6.55;2.80;;;;;;;;;;5106204;27;20259;-75
2022/04/26 12:30:46;;;;;;;7.50;2.72;;;;;;;;;;5117927;27;20050;-75
2022/04/26 12:33:24;;;;;;;5.85;2.60;;;;;;;;;;5120071;27;20132;-74
2022/04/26 12:35:56;;;;;;;6.47;2.58;;;;;;;;;;5099832;27;20110;-73
2022/04/26 12:38:22;;;;;;;6.40;2.90;;;;;;;;;;5119904;27;20043;-73
2022/04/26 12:40:59;;;;;;;7.28;3.10;;;;;;;;;;5117069;27;20313;-73
2022/04/26 12:43:27;;;;;;;5.38;2.53;;;;;;;;;;5119835;27;20273;-74
2022/04/26 12:46:03;;;;;;;5.70;2.60;;;;;;;;;;5114484;27;20039;-75
2022/04/26 12:51:27;;;;;;;6.68;2.65;;;;;;;;;;5118301;27;20035;-75
2022/04/26 12:53:54;;;;;;;6.00;2.65;;;;;;;;;;5117607;27;20039;-74
2022/04/26 12:56:20;;;;;;;6.78;2.80;;;;;;;;;;5119229;27;20047;-75
2022/04/26 12:58:48;;;;;;;5.25;2.28;;;;;;;;;;5101496;27;20055;-73
2022/04/26 13:01:15;;;;;;;5.10;2.25;;;;;;;;;;5135801;27;20222;-74
2022/04/26 13:03:42;;;;;;;6.57;2.97;;;;;;;;;;5119168;27;20047;-75
2022/04/26 13:06:11;;;;;;;5.43;2.40;;;;;;;;;;5094144;27;20074;-74
2022/04/26 13:08:37;;;;;;;6.20;2.40;;;;;;;;;;5078480;28;20106;-74
2022/04/26 13:11:07;;;;;;;5.47;2.50;;;;;;;;;;5116440;27;20051;-74
2022/04/26 13:13:34;;;;;;;6.07;2.65;;;;;;;;;;5102328;27;20046;-73
2022/04/26 13:16:01;;;;;;;6.13;2.50;;;;;;;;;;5100959;27;20448;-75
2022/04/26 13:18:28;;;;;;;5.10;2.45;;;;;;;;;;5110372;27;20311;-74
2022/04/26 13:20:54;;;;;;;5.82;2.50;;;;;;;;;;5114295;27;20611;-74
2022/04/26 13:23:20;;;;;;;5.30;2.40;;;;;;;;;;5120227;27;20082;-74
2022/04/26 13:25:47;;;;;;;5.18;2.40;;;;;;;;;;5100235;27;20444;-75
2022/04/26 13:28:13;;;;;;;4.35;2.03;;;;;;;;;;5118647;27;20057;-74
2022/04/26 13:30:39;;;;;;;4.75;2.08;;;;;;;;;;5116680;27;20222;-73
2022/04/26 13:33:05;;;;;;;6.30;2.13;;;;;;;;;;5101654;27;20047;-75
2022/04/26 13:35:31;;;;;;;5.65;2.45;;;;;;;;;;5116226;27;20129;-73
2022/04/26 13:38:01;;;;;;;5.28;2.20;;;;;;;;;;5101095;27;20043;-72
2022/04/26 13:40:27;;;;;;;4.70;2.20;;;;;;;;;;5099505;28;20046;-74
2022/04/26 13:42:53;;;;;;;4.15;1.95;;;;;;;;;;5118826;28;20145;-74
2022/04/26 13:45:20;;;;;;;5.43;2.53;;;;;;;;;;5116794;28;20205;-74
2022/04/26 13:47:46;;;;;;;5.20;2.15;;;;;;;;;;5118384;28;20051;-74
2022/04/26 13:50:13;;;;;;;4.85;2.22;;;;;;;;;;5099466;28;20039;-74
2022/04/26 13:52:42;;;;;;;4.38;2.05;;;;;;;;;;5120006;28;20507;-74
2022/04/26 13:55:08;;;;;;;5.80;2.28;;;;;;;;;;5105687;28;20155;-73
2022/04/26 13:57:34;;;;;;;5.30;2.30;;;;;;;;;;5097267;28;20066;-74
2022/04/26 14:00:01;;;;;;;4.63;2.05;;;;;;;;;;5106680;28;20134;-74
2022/04/26 14:02:27;;;;;;;5.00;2.22;;;;;;;;;;5119205;28;20492;-73
2022/04/26 14:04:53;;;;;;;6.70;2.25;;;;;;;;;;5116115;28;20112;-73
2022/04/26 14:07:19;;;;;;;5.15;2.20;;;;;;;;;;5101539;28;20035;-75
2022/04/26 14:09:45;;;;;;;5.95;2.10;;;;;;;;;;5112740;28;20116;-75
2022/04/26 14:12:13;;;;;;;4.95;2.30;;;;;;;;;;5118808;28;20261;-73
2022/04/26 14:22:54;;;;;;;5.35;2.08;;;;;;;;;;5118481;28;20319;-73
2022/04/26 14:25:21;;;;;;;4.70;1.98;;;;;;;;;;5116782;28;20055;-73
2022/04/26 14:27:49;;;;;;;4.75;2.00;;;;;;;;;;5118548;28;20420;-72
2022/04/26 14:30:15;;;;;;;4.93;2.10;;;;;;;;;;5116837;28;20366;-74
2022/04/26 14:32:41;;;;;;;4.70;1.90;;;;;;;;;;5101325;28;20070;-73
2022/04/26 14:35:08;;;;;;;5.25;2.00;;;;;;;;;;5115625;28;20043;-73
2022/04/26 14:37:34;;;;;;;5.72;2.30;;;;;;;;;;5119698;27;20186;-73
2022/04/26 14:40:00;;;;;;;5.55;2.13;;;;;;;;;;5116298;28;20070;-74
2022/04/26 14:42:28;;;;;;;4.63;2.03;;;;;;;;;;5117781;28;20070;-74
2022/04/26 14:44:54;;;;;;;6.22;2.20;;;;;;;;;;5099629;28;20389;-75
2022/04/26 14:47:20;;;;;;;4.72;1.80;;;;;;;;;;5119412;27;20450;-72
2022/04/26 14:49:47;;;;;;;6.72;2.10;;;;;;;;;;5101692;27;20154;-73
2022/04/26 14:52:16;;;;;;;5.60;1.90;;;;;;;;;;5104799;27;20039;-73
2022/04/26 14:54:42;;;;;;;5.22;2.30;;;;;;;;;;5121272;27;20133;-73
2022/04/26 14:57:08;;;;;;;5.32;1.92;;;;;;;;;;5104484;27;20130;-73
2022/04/26 14:59:39;;;;;;;4.57;1.73;;;;;;;;;;5119900;27;20108;-74
2022/04/26 15:02:05;;;;;;;4.32;1.85;;;;;;;;;;5121741;27;20054;-74
2022/04/26 15:04:32;;;;;;;6.70;2.15;;;;;;;;;;5119576;27;20051;-74
2022/04/26 15:06:58;;;;;;;5.22;1.90;;;;;;;;;;5121433;27;20543;-74
2022/04/26 15:09:42;;;;;;;4.80;1.90;;;;;;;;;;5119498;27;20046;-72
2022/04/26 15:17:38;;;;;;;4.38;1.80;;;;;;;;;;5121607;27;20500;-74
2022/04/26 15:20:05;;;;;;;4.38;1.88;;;;;;;;;;5118777;27;20049;-74
2022/04/26 15:22:31;;;;;;;5.28;2.03;;;;;;;;;;5121136;27;20122;-73
2022/04/26 15:24:57;;;;;;;4.38;1.85;;;;;;;;;;5119549;27;20049;-74
2022/04/26 15:27:24;;;;;;;5.15;2.10;;;;;;;;;;5122681;27;20628;-74
2022/04/26 15:29:50;;;;;;;3.67;1.75;;;;;;;;;;5102012;27;20043;-74
2022/04/26 15:32:16;;;;;;;4.20;1.73;;;;;;;;;;5103674;27;20174;-74
2022/04/26 15:34:42;;;;;;;4.88;2.03;;;;;;;;;;5118525;27;20035;-75
2022/04/26 15:37:08;;;;;;;4.38;1.63;;;;;;;;;;5120308;27;20093;-73
2022/04/26 15:39:34;;;;;;;6.38;2.00;;;;;;;;;;5102711;27;20158;-75
2022/04/26 15:42:01;;;;;;;3.97;1.70;;;;;;;;;;5071198;28;20401;-74
2022/04/26 15:44:27;;;;;;;4.72;1.83;;;;;;;;;;5091006;27;20661;-74
2022/04/26 15:46:56;;;;;;;4.45;1.73;;;;;;;;;;5120774;27;20331;-74
2022/04/26 15:49:22;;;;;;;5.10;1.90;;;;;;;;;;5101951;27;20054;-74
2022/04/26 15:51:48;;;;;;;5.10;2.20;;;;;;;;;;5120701;27;20035;-72
2022/04/26 15:54:16;;;;;;;5.05;2.10;;;;;;;;;;5118416;27;20046;-73
2022/04/26 15:56:42;;;;;;;6.32;2.00;;;;;;;;;;5120549;27;20465;-73
2022/04/26 15:59:08;;;;;;;4.63;1.88;;;;;;;;;;5105040;27;20118;-73
2022/04/26 16:01:36;;;;;;;3.47;1.42;;;;;;;;;;5071628;28;20485;-73
2022/04/26 16:04:02;;;;;;;4.53;1.80;;;;;;;;;;5095040;27;20775;-75
2022/04/26 16:06:28;;;;;;;6.45;1.85;;;;;;;;;;5121693;27;20046;-72
2022/04/26 16:20:28;;;;;;;5.45;2.25;;;;;;;;;;5118515;27;20053;-72
2022/04/26 16:22:39;;;;;;;;;;;;;;;;;;5087407;28;20444;-72
2022/04/26 16:25:05;;;;;;;10.15;3.30;;;;;;;;;;5109523;27;19941;-70
2022/04/26 16:27:32;;;;;;;7.55;3.28;;;;;;;;;;5120545;27;20039;-69
2022/04/26 16:30:01;;;;;;;8.02;3.78;;;;;;;;;;5117833;27;20067;-69
2022/04/26 16:32:28;;;;;;;7.05;3.63;;;;;;;;;;5120005;27;20082;-70
2022/04/26 16:34:56;;;;;;;7.65;2.97;;;;;;;;;;5117957;27;20062;-70
2022/04/26 16:37:22;;;;;;;6.25;2.72;;;;;;;;;;5121267;27;20314;-70
2022/04/26 16:39:49;;;;;;;6.30;3.05;;;;;;;;;;5108083;27;20051;-70
2022/04/26 16:42:15;;;;;;;6.35;2.60;;;;;;;;;;5118912;27;20080;-70
2022/04/26 16:44:41;;;;;;;6.13;2.50;;;;;;;;;;5118025;27;20054;-70
2022/04/26 16:47:07;;;;;;;7.20;2.72;;;;;;;;;;5119679;27;20427;-71
2022/04/26 16:49:33;;;;;;;8.13;3.83;;;;;;;;;;5116391;27;20115;-71
2022/04/26 16:52:00;;;;;;;6.60;2.63;;;;;;;;;;5103974;27;20613;-71
2022/04/26 16:54:26;;;;;;;6.20;2.55;;;;;;;;;;5095121;27;20039;-71
2022/04/26 16:56:52;;;;;;;5.85;2.85;;;;;;;;;;5119078;27;20492;-71
2022/04/26 16:59:19;;;;;;;5.50;2.33;;;;;;;;;;5101436;27;20035;-71
2022/04/26 17:01:45;;;;;;;6.38;2.65;;;;;;;;;;5104097;27;20626;-70
2022/04/26 17:04:12;;;;;;;5.75;2.50;;;;;;;;;;5090194;27;20050;-71
2022/04/26 17:06:38;;;;;;;6.55;2.65;;;;;;;;;;5095080;28;20490;-71
2022/04/26 17:09:04;;;;;;;5.47;2.50;;;;;;;;;;5101385;27;20299;-70
2022/04/26 17:11:42;;;;;;;31.10;11.02;;;;;;;;;;5087338;27;20176;-71
2022/04/26 17:14:14;;;;;;;13.50;6.35;;;;;;;;;;5099367;28;20077;-72
2022/04/26 17:16:40;;;;;;;15.45;6.10;;;;;;;;;;5094629;28;20133;-72
2022/04/26 17:19:06;;;;;;;12.60;5.65;;;;;;;;;;5092044;28;20278;-72
2022/04/26 17:21:32;;;;;;;12.90;5.50;;;;;;;;;;5100649;27;20559;-72
2022/04/26 17:24:00;;;;;;;10.80;5.00;;;;;;;;;;5087318;28;20601;-73
2022/04/26 17:26:26;;;;;;;11.73;5.05;;;;;;;;;;5082761;28;20043;-71
2022/04/26 17:28:55;;;;;;;10.55;5.20;;;;;;;;;;5097625;28;20047;-72
2022/04/26 17:31:21;;;;;;;14.02;5.07;;;;;;;;;;5108536;27;20132;-75
2022/04/26 17:33:50;;;;;;;16.33;5.45;;;;;;;;;;5098318;28;20119;-72
2022/04/26 17:36:17;;;;;;;15.35;5.88;;;;;;;;;;5100634;28;20258;-72
2022/04/26 17:38:43;;;;;;;17.63;5.55;;;;;;;;;;5074440;28;20622;-71
2022/04/26 17:41:09;;;;;;;11.88;5.10;;;;;;;;;;5071539;28;20481;-71
2022/04/26 17:43:36;;;;;;;10.88;6.07;;;;;;;;;;5076531;28;20181;-71
2022/04/26 17:46:02;;;;;;;12.38;5.35;;;;;;;;;;5099228;28;20111;-71
2022/04/26 17:48:28;;;;;;;8.77;4.50;;;;;;;;;;5077567;28;20684;-71
2022/04/26 17:50:54;;;;;;;11.73;4.80;;;;;;;;;;5085737;28;20051;-71
2022/04/26 17:58:49;;;;;;;;;;;;;;;;;;5096233;28;20051;-72
2022/04/26 18:01:16;;;;;;;12.00;4.78;;;;;;;;;;5094263;28;19927;-73
2022/04/26 18:03:42;;;;;;;9.00;4.28;;;;;;;;;;5077438;28;20090;-73
2022/04/26 18:06:10;;;;;;;12.75;4.80;;;;;;;;;;5115334;28;20062;-73
2022/04/26 18:08:38;;;;;;;8.38;3.70;;;;;;;;;;5118500;28;20476;-72
2022/04/26 18:11:04;;;;;;;9.88;3.78;;;;;;;;;;5117024;28;20053;-73
2022/04/26 18:13:31;;;;;;;9.98;3.92;;;;;;;;;;5117639;28;20150;-73
2022/04/26 18:15:57;;;;;;;11.20;4.05;;;;;;;;;;5109430;28;20043;-73
2022/04/26 18:18:27;;;;;;;8.30;3.78;;;;;;;;;;5097815;28;20226;-73
2022/04/26 18:20:54;;;;;;;8.30;3.42;;;;;;;;;;5080168;28;20360;-73
2022/04/26 18:23:20;;;;;;;9.30;3.55;;;;;;;;;;5099677;28;20039;-73
2022/04/26 18:28:31;;;;;;;7.53;3.70;;;;;;;;;;5082816;27;20136;-69
2022/04/26 18:30:59;;;;;;;8.88;3.45;;;;;;;;;;5091335;27;20044;-72
2022/04/26 18:33:25;;;;;;;11.18;3.70;;;;;;;;;;5091112;28;20417;-72
2022/04/26 18:35:51;;;;;;;11.90;4.15;;;;;;;;;;5096369;27;20047;-71
2022/04/26 18:38:18;;;;;;;9.02;3.67;;;;;;;;;;5114743;27;20138;-71
2022/04/26 18:40:44;;;;;;;8.50;3.83;;;;;;;;;;5089700;28;20071;-72
2022/04/26 18:43:12;;;;;;;8.57;3.80;;;;;;;;;;5067728;28;20461;-72
2022/04/26 18:45:39;;;;;;;10.48;3.45;;;;;;;;;;5114934;27;20053;-71
2022/04/26 18:48:05;;;;;;;9.80;3.50;;;;;;;;;;5125669;27;20043;-71
2022/04/26 18:50:31;;;;;;;9.18;3.58;;;;;;;;;;5123803;27;20050;-71
2022/04/26 18:52:58;;;;;;;10.13;3.47;;;;;;;;;;5075751;27;20043;-72
2022/04/26 18:55:24;;;;;;;8.02;3.65;;;;;;;;;;5134627;27;20058;-72
2022/04/26 18:57:50;;;;;;;6.60;3.25;;;;;;;;;;5133553;27;20039;-71
2022/04/26 19:00:17;;;;;;;10.82;3.80;;;;;;;;;;5105129;27;20606;-71
2022/04/26 19:02:43;;;;;;;7.43;3.60;;;;;;;;;;5104595;27;20518;-71
2022/04/26 19:05:10;;;;;;;12.00;4.78;;;;;;;;;;5107342;27;20133;-71
2022/04/26 19:07:36;;;;;;;9.57;3.80;;;;;;;;;;5103505;27;20062;-71
2022/04/26 19:12:57;;;;;;;8.45;3.70;;;;;;;;;;5047222;27;20128;-71
2022/04/26 19:15:23;;;;;;;7.35;3.80;;;;;;;;;;5116407;27;20179;-73